createdAt,value
2022-11-19T00:02:14.844Z,96565.06
2022-11-19T00:04:43.243Z,96561.63
2022-11-19T00:07:11.557Z,96563.41
2022-11-19T00:09:41.243Z,96563.41
2022-11-19T00:12:29.054Z,96569.88
2022-11-19T00:14:57.339Z,96570.22
2022-11-19T00:17:25.623Z,96575.50
2022-11-19T00:19:53.835Z,96573.38
2022-11-19T00:22:22.136Z,96567.41
2022-11-19T00:24:51.775Z,96576.50
2022-11-19T00:27:20.067Z,96571.72
2022-11-19T00:29:48.326Z,96569.41
2022-11-19T00:32:16.761Z,96572.22
2022-11-19T00:34:45.028Z,96574.34
2022-11-19T00:37:13.214Z,96570.22
2022-11-19T00:39:41.512Z,96574.19
2022-11-19T00:42:11.170Z,96582.47
2022-11-19T00:44:39.488Z,96580.78
2022-11-19T00:47:07.780Z,96582.78
2022-11-19T00:49:36.140Z,96575.81
2022-11-19T00:52:05.083Z,96581.44
2022-11-19T00:54:34.435Z,96583.28
2022-11-19T00:57:02.750Z,96586.91
2022-11-19T00:59:32.394Z,96585.25
2022-11-19T01:02:00.664Z,96587.06
2022-11-19T01:04:28.966Z,96592.50
2022-11-19T01:06:57.270Z,96597.81
2022-11-19T01:09:25.865Z,96602.94
2022-11-19T01:11:54.211Z,96607.41
2022-11-19T01:14:22.658Z,96612.69
2022-11-19T01:16:52.262Z,96612.69
2022-11-19T01:19:20.782Z,96622.28
2022-11-19T01:21:49.347Z,96620.47
2022-11-19T01:24:17.637Z,96623.75
2022-11-19T01:26:46.342Z,96626.56
2022-11-19T01:29:14.978Z,96622.78
2022-11-19T01:31:43.317Z,96623.75
2022-11-19T01:34:12.889Z,96632.34
2022-11-19T01:36:41.183Z,96631.34
2022-11-19T01:39:09.531Z,96630.22
2022-11-19T01:41:37.813Z,96632.72
2022-11-19T01:44:08.348Z,96631.72
2022-11-19T01:46:39.743Z,96640.63
2022-11-19T01:49:14.362Z,96637.31
2022-11-19T01:51:49.847Z,96645.41
2022-11-19T01:54:25.568Z,96640.97
2022-11-19T01:56:54.611Z,96647.91
2022-11-19T01:59:23.278Z,96643.44
2022-11-19T02:01:51.595Z,96646.25
2022-11-19T02:04:22.805Z,96646.25
2022-11-19T02:06:51.548Z,96647.06
2022-11-19T02:09:20.433Z,96640.13
2022-11-19T02:12:24.597Z,96646.56
2022-11-19T02:15:09.422Z,96647.53
2022-11-19T02:17:58.355Z,96647.53
2022-11-19T02:20:57.624Z,96659.13
2022-11-19T02:23:58.673Z,96656.63
2022-11-19T02:27:14.292Z,96661.09
2022-11-19T02:30:05.180Z,96665.72
2022-11-19T02:32:37.906Z,96656.81
2022-11-19T02:35:17.168Z,96649.88
2022-11-19T02:37:51.995Z,96661.41
2022-11-19T02:40:26.307Z,96656.13
2022-11-19T02:43:05.935Z,96661.56
2022-11-19T02:45:40.635Z,96656.44
2022-11-19T02:48:15.648Z,96660.94
2022-11-19T02:50:48.243Z,96655.81
2022-11-19T02:53:16.624Z,96654.97
2022-11-19T02:56:07.701Z,96653.16
2022-11-19T02:58:57.521Z,96657.25
2022-11-19T03:01:46.745Z,96658.25
2022-11-19T03:04:33.506Z,96661.06
2022-11-19T03:07:06.803Z,96679.03
2022-11-19T03:09:40.392Z,96681.03
2022-11-19T03:12:19.156Z,96691.78
2022-11-19T03:15:14.027Z,96696.03
2022-11-19T03:18:02.424Z,96693.06
2022-11-19T03:20:38.467Z,96698.63
2022-11-19T03:23:13.335Z,96688.38
2022-11-19T03:25:46.399Z,96687.69
2022-11-19T03:28:21.024Z,96689.69
2022-11-19T03:30:52.320Z,96697.78
2022-11-19T03:33:25.696Z,96707.81
2022-11-19T03:35:58.914Z,96708.81
2022-11-19T03:38:31.934Z,96708.13
2022-11-19T03:41:02.291Z,96712.88
2022-11-19T03:43:36.779Z,96719.16
2022-11-19T03:46:08.071Z,96724.91
2022-11-19T03:48:39.265Z,96728.56
2022-11-19T03:51:13.562Z,96726.38
2022-11-19T03:53:41.936Z,96729.03
2022-11-19T03:56:14.897Z,96727.50
2022-11-19T03:58:46.251Z,96732.94
2022-11-19T04:01:15.071Z,96730.44
2022-11-19T04:04:04.721Z,96731.59
2022-11-19T04:06:33.014Z,96738.03
2022-11-19T04:09:01.241Z,96735.53
2022-11-19T04:11:29.463Z,96741.00
2022-11-19T04:13:57.687Z,96745.44
2022-11-19T04:16:25.919Z,96742.28
2022-11-19T04:18:55.583Z,96743.41
2022-11-19T04:21:23.823Z,96746.19
2022-11-19T04:23:52.080Z,96751.94
2022-11-19T04:26:20.327Z,96756.72
2022-11-19T04:28:48.568Z,96763.28
2022-11-19T04:31:18.180Z,96760.28
2022-11-19T04:33:46.716Z,96773.94
2022-11-19T04:36:16.303Z,96784.13
2022-11-19T04:38:44.592Z,96774.84
2022-11-19T04:41:12.896Z,96788.66
2022-11-19T04:43:41.340Z,96787.16
2022-11-19T04:46:09.689Z,96790.09
2022-11-19T04:48:37.954Z,96787.91
2022-11-19T04:51:06.267Z,96794.44
2022-11-19T04:53:35.907Z,96795.03
2022-11-19T04:56:04.209Z,96796.19
2022-11-19T04:58:32.490Z,96800.91
2022-11-19T05:01:00.972Z,96799.41
2022-11-19T05:03:29.349Z,96799.72
2022-11-19T05:05:57.576Z,96798.50
2022-11-19T05:08:26.215Z,96802.56
2022-11-19T05:10:55.875Z,96807.97
2022-11-19T05:13:24.183Z,96808.59
2022-11-19T05:15:52.504Z,96801.78
2022-11-19T05:18:20.851Z,96810.13
2022-11-19T05:20:49.492Z,96805.31
2022-11-19T05:23:17.714Z,96812.69
2022-11-19T05:25:45.980Z,96813.91
2022-11-19T05:28:15.654Z,96812.56
2022-11-19T05:30:43.945Z,96812.72
2022-11-19T05:33:12.264Z,96814.78
2022-11-19T05:35:40.543Z,96822.84
2022-11-19T05:38:08.843Z,96814.94
2022-11-19T05:40:37.167Z,96822.19
2022-11-19T05:43:06.767Z,96824.25
2022-11-19T05:45:36.448Z,96831.19
2022-11-19T05:48:04.842Z,96826.91
2022-11-19T05:50:33.157Z,96827.88
2022-11-19T05:53:01.409Z,96827.03
2022-11-19T05:55:29.663Z,96833.31
2022-11-19T05:57:57.891Z,96829.97
2022-11-19T06:00:26.212Z,96817.94
2022-11-19T06:02:56.368Z,96825.84
2022-11-19T06:05:24.710Z,96830.41
2022-11-19T06:07:53.031Z,96835.53
2022-11-19T06:10:21.345Z,96831.38
2022-11-19T06:12:49.623Z,96833.31
2022-11-19T06:15:18.100Z,96840.41
2022-11-19T06:17:46.445Z,96846.66
2022-11-19T06:20:16.252Z,96849.28
2022-11-19T06:22:44.473Z,96852.75
2022-11-19T06:25:12.796Z,96859.81
2022-11-19T06:27:41.065Z,96861.66
2022-11-19T06:30:11.078Z,96865.22
2022-11-19T06:32:39.335Z,96865.50
2022-11-19T06:35:08.666Z,96864.84
2022-11-19T06:37:38.498Z,96860.53
2022-11-19T06:40:08.751Z,96859.72
2022-11-19T06:42:39.635Z,96862.34
2022-11-19T06:45:11.247Z,96861.81
2022-11-19T06:47:41.080Z,96860.97
2022-11-19T06:50:11.831Z,96861.25
2022-11-19T06:52:41.720Z,96867.22
2022-11-19T06:55:11.385Z,96868.19
2022-11-19T06:57:39.970Z,96870.97
2022-11-19T07:00:10.339Z,96866.50
2022-11-19T07:02:38.948Z,96875.41
2022-11-19T07:05:08.399Z,96886.78
2022-11-19T07:07:36.841Z,96884.94
2022-11-19T07:10:07.750Z,96879.69
2022-11-19T07:12:36.018Z,96877.03
2022-11-19T07:15:05.261Z,96877.34
2022-11-19T07:17:34.091Z,96881.50
2022-11-19T07:20:02.352Z,96884.94
2022-11-19T07:22:30.635Z,96884.94
2022-11-19T07:24:58.955Z,96880.53
2022-11-19T07:27:28.592Z,96887.59
2022-11-19T07:29:56.864Z,96886.63
2022-11-19T07:32:25.103Z,96895.47
2022-11-19T07:34:53.577Z,96891.06
2022-11-19T07:37:21.975Z,96895.47
2022-11-19T07:39:50.248Z,96900.63
2022-11-19T07:42:36.235Z,96902.44
2022-11-19T07:45:07.558Z,96912.28
2022-11-19T07:47:35.967Z,96910.63
2022-11-19T07:50:05.524Z,96910.63
2022-11-19T07:52:33.846Z,96914.06
2022-11-19T07:55:02.444Z,96912.28
2022-11-19T07:57:30.805Z,96912.97
2022-11-19T07:59:59.191Z,96919.06
2022-11-19T08:02:28.811Z,96919.06
2022-11-19T08:04:57.043Z,96907.56
2022-11-19T08:07:25.368Z,96917.25
2022-11-19T08:09:53.661Z,96909.34
2022-11-19T08:12:22.091Z,96911.72
2022-11-19T08:14:50.471Z,96911.00
2022-11-19T08:17:36.379Z,96914.47
2022-11-19T08:20:07.962Z,96908.38
2022-11-19T08:22:37.088Z,96917.81
2022-11-19T08:25:06.333Z,96914.34
2022-11-19T08:27:34.981Z,96919.47
2022-11-19T08:30:03.336Z,96915.03
2022-11-19T08:32:31.634Z,96914.91
2022-11-19T08:34:59.889Z,96922.66
2022-11-19T08:37:29.572Z,96910.44
2022-11-19T08:39:57.861Z,96917.38
2022-11-19T08:42:43.728Z,96916.41
2022-11-19T08:45:14.607Z,96913.91
2022-11-19T08:47:46.382Z,96916.56
2022-11-19T08:50:14.780Z,96921.69
2022-11-19T08:52:44.656Z,96930.28
2022-11-19T08:55:13.031Z,96919.47
2022-11-19T08:57:41.274Z,96932.50
2022-11-19T09:00:11.318Z,96927.22
2022-11-19T09:02:39.580Z,96929.72
2022-11-19T09:05:14.266Z,96926.25
2022-11-19T09:07:44.308Z,96926.25
2022-11-19T09:10:12.641Z,96933.31
2022-11-19T09:12:40.977Z,96938.44
2022-11-19T09:15:10.557Z,96935.94
2022-11-19T09:17:43.767Z,96939.56
2022-11-19T09:20:14.862Z,96950.94
2022-11-19T09:22:44.503Z,96951.06
2022-11-19T09:25:13.072Z,96951.78
2022-11-19T09:27:41.362Z,96954.13
2022-11-19T09:30:10.804Z,96955.22
2022-11-19T09:32:39.085Z,96950.09
2022-11-19T09:35:08.632Z,96947.47
2022-11-19T09:37:36.925Z,96959.81
2022-11-19T09:40:09.821Z,96965.09
2022-11-19T09:42:44.334Z,96953.00
2022-11-19T09:45:21.015Z,96954.56
2022-11-19T09:48:16.959Z,96959.13
2022-11-19T09:50:54.311Z,96955.78
2022-11-19T09:53:24.589Z,96962.75
2022-11-19T09:55:55.325Z,96962.75
2022-11-19T09:58:27.994Z,96968.81
2022-11-19T10:00:56.329Z,96966.03
2022-11-19T10:03:32.791Z,96979.22
2022-11-19T10:06:21.343Z,96973.28
2022-11-19T10:09:19.312Z,96984.75
2022-11-19T10:12:07.520Z,96971.88
2022-11-19T10:14:58.244Z,96972.00
2022-11-19T10:17:37.799Z,96977.28
2022-11-19T10:20:24.576Z,96970.22
2022-11-19T10:23:01.975Z,96975.34
2022-11-19T10:25:34.268Z,96970.06
2022-11-19T10:28:13.040Z,96961.19
2022-11-19T10:30:44.435Z,96968.16
2022-11-19T10:33:18.277Z,96956.50
2022-11-19T10:35:51.914Z,96951.22
2022-11-19T10:38:26.083Z,96952.88
2022-11-19T10:40:59.683Z,96950.25
2022-11-19T10:43:35.953Z,96951.22
2022-11-19T10:46:07.563Z,96956.50
2022-11-19T10:48:42.803Z,96947.06
2022-11-19T10:51:19.544Z,96952.34
2022-11-19T10:53:48.368Z,96951.63
2022-11-19T10:56:21.182Z,96950.94
2022-11-19T10:58:55.771Z,96946.66
2022-11-19T11:01:31.349Z,96948.44
2022-11-19T11:04:08.286Z,96939.72
2022-11-19T11:06:53.493Z,96942.50
2022-11-19T11:09:33.864Z,96944.44
2022-11-19T11:12:29.818Z,96944.44
2022-11-19T11:15:08.456Z,96937.53
2022-11-19T11:17:38.673Z,96936.53
2022-11-19T11:20:22.034Z,96937.38
2022-11-19T11:22:52.258Z,96933.63
2022-11-19T11:25:24.140Z,96929.34
2022-11-19T11:28:07.356Z,96931.00
2022-11-19T11:30:37.005Z,96939.72
2022-11-19T11:33:32.991Z,96929.19
2022-11-19T11:36:06.286Z,96932.50
2022-11-19T11:38:43.465Z,96928.91
2022-11-19T11:44:06.515Z,96921.97
2022-11-19T11:46:43.315Z,96912.28
2022-11-19T11:49:27.407Z,96912.13
2022-11-19T11:52:08.294Z,96914.75
2022-11-19T11:54:37.483Z,96911.00
2022-11-19T11:57:17.744Z,96916.41
2022-11-19T11:59:46.441Z,96919.06
2022-11-19T12:02:27.032Z,96917.41
2022-11-19T12:04:57.026Z,96917.25
2022-11-19T12:08:14.973Z,96920.19
2022-11-19T12:10:50.842Z,96928.91
2022-11-19T12:13:48.909Z,96926.41
2022-11-19T12:16:32.012Z,96930.56
2022-11-19T12:19:30.936Z,96921.00
2022-11-19T12:22:09.855Z,96922.66
2022-11-19T12:25:01.495Z,96916.56
2022-11-19T12:27:39.643Z,96921.81
2022-11-19T12:30:21.280Z,96918.38
2022-11-19T12:33:21.799Z,96923.50
2022-11-19T12:36:02.844Z,96925.16
2022-11-19T12:38:44.355Z,96922.53
2022-11-19T12:41:49.186Z,96927.78
2022-11-19T12:44:33.551Z,96921.97
2022-11-19T12:47:13.057Z,96927.94
2022-11-19T12:49:57.904Z,96922.66
2022-11-19T12:52:53.034Z,96909.50
2022-11-19T12:55:29.814Z,96921.81
2022-11-19T12:58:08.643Z,96921.00
2022-11-19T13:00:43.779Z,96925.44
2022-11-19T13:03:16.603Z,96929.72
2022-11-19T13:05:52.981Z,96919.88
2022-11-19T13:08:31.261Z,96925.03
2022-11-19T13:11:09.327Z,96921.41
2022-11-19T13:13:42.848Z,96908.38
2022-11-19T13:16:14.461Z,96917.97
2022-11-19T13:18:47.847Z,96924.88
2022-11-19T13:21:27.864Z,96916.97
2022-11-19T13:23:57.945Z,96923.91
2022-11-19T13:26:31.411Z,96918.34
2022-11-19T13:29:10.274Z,96921.81
2022-11-19T13:31:44.502Z,96919.03
2022-11-19T13:34:20.787Z,96914.47
2022-11-19T13:37:00.797Z,96921.53
2022-11-19T13:39:36.546Z,96921.53
2022-11-19T13:42:24.656Z,96918.75
2022-11-19T13:44:53.323Z,96920.69
2022-11-19T13:47:27.701Z,96924.44
2022-11-19T13:50:00.406Z,96921.97
2022-11-19T13:52:32.924Z,96934.28
2022-11-19T13:55:02.937Z,96924.19
2022-11-19T13:57:34.074Z,96920.03
2022-11-19T14:00:06.742Z,96916.69
2022-11-19T14:03:04.306Z,96919.47
2022-11-19T14:05:53.992Z,96923.38
2022-11-19T14:08:46.681Z,96925.31
2022-11-19T14:11:38.834Z,96924.78
2022-11-19T14:14:36.632Z,96928.34
2022-11-19T14:17:34.139Z,96946.94
2022-11-19T14:20:19.668Z,96936.53
2022-11-19T14:23:15.072Z,96942.78
2022-11-19T14:26:03.979Z,96931.41
2022-11-19T14:28:48.480Z,96936.00
2022-11-19T14:31:18.856Z,96934.31
2022-11-19T14:34:04.082Z,96936.69
2022-11-19T14:36:45.192Z,96934.88
2022-11-19T14:39:27.576Z,96930.47
2022-11-19T14:42:14.806Z,96929.47
2022-11-19T14:44:45.233Z,96925.88
2022-11-19T14:47:35.648Z,96920.06
2022-11-19T14:50:08.634Z,96916.31
2022-11-19T14:52:39.985Z,96908.41
2022-11-19T14:55:22.700Z,96904.13
2022-11-19T14:57:59.709Z,96898.03
2022-11-19T15:00:34.179Z,96897.88
2022-11-19T15:03:04.830Z,96903.00
2022-11-19T15:05:36.806Z,96897.75
2022-11-19T15:08:50.462Z,96899.66
2022-11-19T15:11:20.077Z,96904.94
2022-11-19T15:13:49.937Z,96914.66
2022-11-19T15:16:23.419Z,96908.69
2022-11-19T15:19:23.160Z,96911.47
2022-11-19T15:22:30.953Z,96910.09
2022-11-19T15:25:20.487Z,96909.25
2022-11-19T15:28:01.915Z,96909.25
2022-11-19T15:30:50.142Z,96914.38
2022-11-19T15:34:09.934Z,96936.56
2022-11-19T15:36:41.715Z,96937.53
2022-11-19T15:39:17.979Z,96933.22
2022-11-19T15:42:01.341Z,96933.09
2022-11-19T15:44:42.963Z,96937.69
2022-11-19T15:47:17.229Z,96945.72
2022-11-19T15:49:48.426Z,96950.00
2022-11-19T15:52:23.802Z,96940.44
2022-11-19T15:54:52.078Z,96936.00
2022-11-19T15:57:24.711Z,96934.22
2022-11-19T15:59:57.864Z,96946.38
2022-11-19T16:02:38.851Z,96940.44
2022-11-19T16:05:20.471Z,96942.38
2022-11-19T16:07:49.544Z,96938.09
2022-11-19T16:10:26.099Z,96945.28
2022-11-19T16:13:13.602Z,96947.22
2022-11-19T16:16:07.001Z,96952.47
2022-11-19T16:18:35.330Z,96944.72
2022-11-19T16:21:06.147Z,96952.47
2022-11-19T16:23:54.396Z,96963.00
2022-11-19T16:26:23.827Z,96963.84
2022-11-19T16:28:52.133Z,96963.56
2022-11-19T16:31:20.434Z,96958.03
2022-11-19T16:33:55.760Z,96952.78
2022-11-19T16:36:26.271Z,96936.97
2022-11-19T16:38:55.732Z,96935.19
2022-11-19T16:41:43.447Z,96940.44
2022-11-19T16:44:15.352Z,96951.94
2022-11-19T16:46:44.087Z,96948.22
2022-11-19T16:49:30.853Z,96948.06
2022-11-19T16:52:03.060Z,96955.00
2022-11-19T16:54:51.548Z,96956.66
2022-11-19T16:57:23.292Z,96949.59
2022-11-19T16:59:54.955Z,96949.59
2022-11-19T17:02:26.778Z,96955.25
2022-11-19T17:04:55.172Z,96960.50
2022-11-19T17:07:27.941Z,96968.28
2022-11-19T17:10:30.282Z,96963.00
2022-11-19T17:13:02.754Z,96963.00
2022-11-19T17:15:40.057Z,96977.16
2022-11-19T17:18:18.181Z,96980.78
2022-11-19T17:20:53.286Z,96985.31
2022-11-19T17:23:25.429Z,96982.41
2022-11-19T17:25:56.488Z,96981.72
2022-11-19T17:28:35.161Z,96974.66
2022-11-19T17:31:07.605Z,96972.88
2022-11-19T17:33:37.141Z,96985.06
2022-11-19T17:36:05.924Z,96993.78
2022-11-19T17:38:36.151Z,96998.78
2022-11-19T17:41:07.451Z,96995.31
2022-11-19T17:43:56.203Z,96999.59
2022-11-19T17:46:25.857Z,96996.97
2022-11-19T17:48:54.929Z,97010.13
2022-11-19T17:51:26.059Z,97006.53
2022-11-19T17:53:57.941Z,97008.19
2022-11-19T17:56:29.038Z,97010.69
2022-11-19T17:58:59.679Z,97014.03
2022-11-19T18:01:28.181Z,97025.38
2022-11-19T18:03:56.547Z,97021.78
2022-11-19T18:06:24.931Z,97023.59
2022-11-19T18:08:53.351Z,97028.84
2022-11-19T18:11:25.524Z,97028.00
2022-11-19T18:13:57.253Z,97029.69
2022-11-19T18:16:29.077Z,97032.31
2022-11-19T18:18:57.453Z,97027.06
2022-11-19T18:21:27.231Z,97025.38
2022-11-19T18:23:55.600Z,97025.38
2022-11-19T18:26:25.289Z,97028.00
2022-11-19T18:28:53.594Z,97027.06
2022-11-19T18:31:24.427Z,97021.09
2022-11-19T18:33:53.060Z,97020.09
2022-11-19T18:36:22.016Z,97024.56
2022-11-19T18:38:50.268Z,97024.56
2022-11-19T18:41:19.992Z,97021.78
2022-11-19T18:44:07.481Z,97027.75
2022-11-19T18:46:35.795Z,97018.19
2022-11-19T18:49:04.433Z,97026.94
2022-11-19T18:51:33.219Z,97026.94
2022-11-19T18:54:01.801Z,97015.41
2022-11-19T18:56:30.257Z,97016.25
2022-11-19T18:59:04.481Z,97014.56
2022-11-19T19:01:33.807Z,97009.31
2022-11-19T19:04:02.333Z,97019.69
2022-11-19T19:06:30.723Z,97024.16
2022-11-19T19:08:59.183Z,97016.25
2022-11-19T19:11:45.156Z,97022.34
2022-11-19T19:14:14.883Z,97023.16
2022-11-19T19:16:43.369Z,97024.00
2022-11-19T19:19:14.120Z,97026.66
2022-11-19T19:21:42.597Z,97022.91
2022-11-19T19:24:11.419Z,97030.66
2022-11-19T19:26:39.810Z,97026.22
2022-11-19T19:29:08.264Z,97023.31
2022-11-19T19:31:38.122Z,97021.50
2022-11-19T19:34:06.670Z,97029.25
2022-11-19T19:36:35.548Z,97031.91
2022-11-19T19:39:04.403Z,97025.69
2022-11-19T19:41:33.466Z,97031.75
2022-11-19T19:44:04.038Z,97034.41
2022-11-19T19:46:33.649Z,97037.88
2022-11-19T19:49:03.428Z,97040.50
2022-11-19T19:51:32.808Z,97039.66
2022-11-19T19:54:01.540Z,97036.22
2022-11-19T19:56:32.133Z,97030.81
2022-11-19T19:59:01.770Z,97028.97
2022-11-19T20:01:32.623Z,97036.88
2022-11-19T20:04:05.181Z,97039.53
2022-11-19T20:06:35.323Z,97036.75
2022-11-19T20:09:08.394Z,97042.16
2022-11-19T20:11:37.968Z,97053.41
2022-11-19T20:14:06.861Z,97044.66
2022-11-19T20:16:36.134Z,97045.50
2022-11-19T20:19:07.312Z,97047.16
2022-11-19T20:21:36.532Z,97045.34
2022-11-19T20:24:10.455Z,97045.34
2022-11-19T20:26:42.479Z,97047.16
2022-11-19T20:29:14.397Z,97045.50
2022-11-19T20:31:47.805Z,97048.97
2022-11-19T20:34:18.420Z,97052.13
2022-11-19T20:36:46.759Z,97053.13
2022-11-19T20:39:15.037Z,97052.97
2022-11-19T20:42:00.574Z,97046.88
2022-11-19T20:44:28.906Z,97060.03
2022-11-19T20:46:59.164Z,97049.50
2022-11-19T20:49:30.596Z,97055.63
2022-11-19T20:51:59.590Z,97051.31
2022-11-19T20:54:28.454Z,97048.69
2022-11-19T20:56:59.147Z,97052.13
2022-11-19T20:59:29.688Z,97053.81
2022-11-19T21:01:58.727Z,97050.34
2022-11-19T21:04:31.377Z,97047.72
2022-11-19T21:06:59.714Z,97041.47
2022-11-19T21:09:28.147Z,97041.47
2022-11-19T21:11:56.444Z,97049.38
2022-11-19T21:14:24.779Z,97051.19
2022-11-19T21:16:53.021Z,97047.56
2022-11-19T21:19:21.527Z,97044.09
2022-11-19T21:21:51.318Z,97046.72
2022-11-19T21:24:19.808Z,97036.19
2022-11-19T21:26:48.110Z,97038.81
2022-11-19T21:29:16.441Z,97048.56
2022-11-19T21:31:46.698Z,97036.19
2022-11-19T21:34:17.777Z,97036.19
2022-11-19T21:36:47.276Z,97034.53
2022-11-19T21:39:20.821Z,97029.41
2022-11-19T21:41:49.533Z,97037.31
2022-11-19T21:44:21.419Z,97038.97
2022-11-19T21:46:50.494Z,97038.28
2022-11-19T21:49:19.506Z,97032.19
2022-11-19T21:51:49.065Z,97031.34
2022-11-19T21:54:18.907Z,97027.06
2022-11-19T21:56:47.456Z,97030.66
2022-11-19T21:59:15.695Z,97031.47
2022-11-19T22:01:44.042Z,97026.22
2022-11-19T22:04:15.433Z,97028.72
2022-11-19T22:06:43.758Z,97035.94
2022-11-19T22:09:12.119Z,97029.69
2022-11-19T22:11:41.816Z,97032.31
2022-11-19T22:14:10.765Z,97032.31
2022-11-19T22:16:41.104Z,97030.66
2022-11-19T22:19:11.544Z,97024.69
2022-11-19T22:21:40.343Z,97027.19
2022-11-19T22:24:08.771Z,97028.03
2022-11-19T22:26:37.143Z,97023.72
2022-11-19T22:29:06.917Z,97028.97
2022-11-19T22:31:35.229Z,97015.94
2022-11-19T22:34:03.583Z,97025.53
2022-11-19T22:36:34.307Z,97023.03
2022-11-19T22:39:02.927Z,97026.50
2022-11-19T22:41:31.415Z,97028.31
2022-11-19T22:43:59.829Z,97027.47
2022-11-19T22:46:29.848Z,97031.91
2022-11-19T22:48:58.251Z,97032.88
2022-11-19T22:51:27.427Z,97034.66
2022-11-19T22:53:57.146Z,97032.19
2022-11-19T22:56:28.489Z,97033.03
2022-11-19T22:58:57.772Z,97039.13
2022-11-19T23:01:30.140Z,97035.66
2022-11-19T23:04:01.881Z,97045.22
2022-11-19T23:06:30.458Z,97033.16
2022-11-19T23:08:58.856Z,97034.13
2022-11-19T23:11:53.101Z,97029.94
2022-11-19T23:14:21.888Z,97032.44
2022-11-19T23:16:51.624Z,97029.81
2022-11-19T23:19:20.400Z,97035.94
2022-11-19T23:21:49.276Z,97031.50
2022-11-19T23:24:17.852Z,97032.44
2022-11-19T23:26:46.153Z,97031.50
2022-11-19T23:29:14.514Z,97032.31
2022-11-19T23:31:42.919Z,97028.03
2022-11-19T23:34:12.769Z,97030.53
2022-11-19T23:36:42.805Z,97028.72
2022-11-19T23:39:17.550Z,97030.53
2022-11-19T23:41:46.853Z,97031.38
2022-11-19T23:44:15.313Z,97027.75
2022-11-19T23:46:43.840Z,97025.97
2022-11-19T23:49:13.751Z,97022.47
2022-11-19T23:51:42.164Z,97025.97
2022-11-19T23:54:14.264Z,97024.28
2022-11-19T23:56:42.864Z,97028.72
2022-11-19T23:59:11.325Z,97025.25
